Time;durP1;ratioP1;P1;durP2;ratioP2;P2;SDS_P1;SDS_P2;PMS_P1;PMS_P2;Temp;Humidity;BMP_temperature;BMP_pressure;BME280_temperature;BME280_humidity;BME280_pressure;Samples;Min_cycle;Max_cycle;Signal;HPM_P1;HPM_P2
2022/05/23 00:01:43;;;;;;;8.05;4.15;;;;;;;16.62;58.68;100752.94;4971273;28;20022;-69
2022/05/23 00:04:08;;;;;;;7.05;3.85;;;;;;;16.57;58.62;100739.53;4985638;28;20124;-62
2022/05/23 00:06:34;;;;;;;7.18;3.70;;;;;;;16.52;58.76;100747.09;4990214;28;20470;-63
2022/05/23 00:08:59;;;;;;;8.35;4.07;;;;;;;16.55;59.23;100738.88;4989913;28;20518;-63
2022/05/23 00:11:25;;;;;;;8.50;3.80;;;;;;;16.56;59.13;100722.19;4989668;28;20057;-63
2022/05/23 00:13:50;;;;;;;7.70;3.88;;;;;;;16.51;59.61;100716.63;4989655;28;20109;-65
2022/05/23 00:16:19;;;;;;;7.95;3.95;;;;;;;16.58;58.81;100720.22;4990191;28;20569;-62
2022/05/23 00:18:45;;;;;;;9.52;4.20;;;;;;;16.45;59.16;100710.25;4989750;28;20034;-63
2022/05/23 00:21:10;;;;;;;7.57;3.95;;;;;;;16.44;58.75;100706.00;4990001;28;20068;-63
2022/05/23 00:23:36;;;;;;;8.05;4.25;;;;;;;16.38;59.02;100698.81;4989773;28;20030;-63
2022/05/23 00:26:01;;;;;;;6.93;3.83;;;;;;;16.34;58.98;100687.84;4989460;28;20129;-64
2022/05/23 00:28:27;;;;;;;7.90;3.65;;;;;;;16.31;59.36;100688.19;4989354;28;20806;-63
2022/05/23 00:30:52;;;;;;;8.77;4.05;;;;;;;16.20;59.63;100675.44;4989210;28;20023;-63
2022/05/23 00:36:01;;;;;;;8.38;3.60;;;;;;;16.17;59.24;100660.06;4989660;28;20594;-62
2022/05/23 00:38:26;;;;;;;7.22;3.55;;;;;;;16.07;59.51;100648.97;4989172;28;20042;-63
2022/05/23 00:43:42;;;;;;;7.65;3.40;;;;;;;16.01;60.20;100649.66;4989089;28;20105;-63
2022/05/23 00:46:07;;;;;;;7.13;3.40;;;;;;;15.99;59.53;100641.13;4989007;28;20386;-64
2022/05/23 00:48:32;;;;;;;7.70;3.60;;;;;;;15.95;60.37;100647.69;4988921;28;20841;-67
2022/05/23 00:51:01;;;;;;;8.43;3.83;;;;;;;15.88;60.30;100644.88;4988480;28;20479;-63
2022/05/23 00:53:38;;;;;;;;;;;;;;;16.07;59.32;100643.75;4989102;28;20065;-63
2022/05/23 00:56:07;;;;;;;7.13;3.50;;;;;;;15.85;60.17;100635.59;4988841;28;19914;-63
2022/05/23 00:58:39;;;;;;;7.05;3.50;;;;;;;15.87;60.17;100633.59;4976840;28;20034;-63
2022/05/23 01:01:08;;;;;;;8.20;3.25;;;;;;;15.81;60.31;100644.72;4972431;28;20038;-63
2022/05/23 01:03:34;;;;;;;8.30;3.40;;;;;;;15.77;60.62;100627.75;4986690;28;20084;-62
2022/05/23 01:06:00;;;;;;;7.90;3.28;;;;;;;15.72;60.09;100635.25;4988715;28;20030;-62
2022/05/23 01:08:26;;;;;;;9.15;3.55;;;;;;;15.71;60.58;100635.41;4988960;28;20030;-63
2022/05/23 01:10:52;;;;;;;8.82;3.22;;;;;;;15.65;60.74;100629.03;4953636;28;20488;-63
2022/05/23 01:13:18;;;;;;;7.20;3.25;;;;;;;15.77;60.85;100640.81;4969373;28;20540;-68
2022/05/23 01:15:46;;;;;;;8.90;3.45;;;;;;;15.78;60.29;100633.78;4968119;28;20088;-63
2022/05/23 01:18:12;;;;;;;7.28;3.20;;;;;;;15.82;60.48;100635.91;4963542;28;20038;-63
2022/05/23 01:20:37;;;;;;;6.57;3.33;;;;;;;15.64;60.83;100636.06;4970788;28;20029;-63
2022/05/23 01:23:04;;;;;;;7.00;3.47;;;;;;;15.70;60.88;100636.38;4979844;28;20073;-63
2022/05/23 01:25:34;;;;;;;8.60;3.40;;;;;;;15.64;60.77;100632.63;4979482;28;20022;-64
2022/05/23 01:28:00;;;;;;;7.47;3.10;;;;;;;15.68;60.83;100623.50;4969366;28;20082;-63
2022/05/23 01:30:26;;;;;;;8.10;3.40;;;;;;;15.66;60.45;100622.84;4980916;28;20061;-62
2022/05/23 01:32:52;;;;;;;10.13;3.17;;;;;;;15.71;60.41;100631.00;4978638;28;20034;-64
2022/05/23 01:35:17;;;;;;;8.23;3.60;;;;;;;15.65;60.72;100629.88;4985180;28;20074;-63
2022/05/23 01:37:43;;;;;;;7.53;3.15;;;;;;;15.61;60.67;100633.75;4983156;28;20094;-68
2022/05/23 01:40:11;;;;;;;6.95;3.17;;;;;;;15.49;61.01;100634.25;4978778;28;20021;-63
2022/05/23 01:42:36;;;;;;;;;;;;;;;15.74;59.91;100633.28;4970697;28;20498;-63
2022/05/23 01:45:03;;;;;;;7.20;3.10;;;;;;;15.62;60.77;100634.56;4970479;28;19948;-67
2022/05/23 01:47:28;;;;;;;6.78;3.30;;;;;;;15.60;60.58;100631.31;4987100;28;20686;-63
2022/05/23 01:49:53;;;;;;;7.07;3.15;;;;;;;15.58;61.02;100628.03;4978637;28;20030;-65
2022/05/23 01:52:19;;;;;;;7.55;3.33;;;;;;;15.55;61.09;100633.59;4987574;28;20030;-63
2022/05/23 01:54:44;;;;;;;7.63;3.28;;;;;;;15.44;61.43;100626.88;4984845;28;20545;-63
2022/05/23 01:57:11;;;;;;;7.55;3.13;;;;;;;15.51;61.35;100633.09;4969716;28;20135;-63
2022/05/23 02:02:21;;;;;;;7.47;3.10;;;;;;;15.46;62.44;100630.13;4968670;28;20041;-63
2022/05/23 02:04:46;;;;;;;9.48;3.63;;;;;;;15.47;62.20;100625.72;4971234;28;20072;-63
2022/05/23 02:07:12;;;;;;;7.32;3.50;;;;;;;15.41;62.17;100628.00;4987796;28;20487;-64
2022/05/23 02:09:38;;;;;;;9.02;3.40;;;;;;;15.47;62.16;100630.94;4960828;28;20035;-62
2022/05/23 02:12:05;;;;;;;5.93;3.05;;;;;;;15.39;62.17;100629.16;4968066;28;20025;-64
2022/05/23 02:14:31;;;;;;;9.55;3.40;;;;;;;15.31;62.54;100632.59;4987161;28;20525;-64
2022/05/23 02:16:56;;;;;;;6.75;3.13;;;;;;;15.34;62.66;100619.19;4987494;28;20030;-63
2022/05/23 02:19:21;;;;;;;7.72;3.70;;;;;;;15.22;62.33;100612.63;4982118;28;20038;-63
2022/05/23 02:21:47;;;;;;;7.07;3.55;;;;;;;15.27;62.44;100605.13;4984425;28;20026;-64
2022/05/23 02:24:12;;;;;;;6.90;3.28;;;;;;;15.29;62.82;100607.56;4988079;28;20042;-64
2022/05/23 02:26:37;;;;;;;8.20;3.50;;;;;;;15.21;63.33;100611.00;4982699;28;20042;-63
2022/05/23 02:29:04;;;;;;;9.48;3.65;;;;;;;15.24;63.17;100599.41;4972861;28;20026;-66
2022/05/23 02:31:30;;;;;;;7.43;3.67;;;;;;;15.14;63.37;100594.34;4986857;28;20601;-63
2022/05/23 02:33:55;;;;;;;6.80;3.22;;;;;;;15.20;63.61;100598.91;4987496;28;20185;-63
2022/05/23 02:36:21;;;;;;;6.50;3.53;;;;;;;15.18;64.09;100594.81;4972782;28;20570;-63
2022/05/23 02:38:46;;;;;;;8.95;3.60;;;;;;;15.17;64.07;100583.56;4969660;28;20027;-63
2022/05/23 02:41:12;;;;;;;10.50;3.72;;;;;;;15.11;64.70;100589.41;4987316;28;20033;-63
2022/05/23 02:43:37;;;;;;;8.10;4.10;;;;;;;15.02;65.34;100585.13;4977681;28;20062;-63
2022/05/23 02:46:03;;;;;;;9.05;3.90;;;;;;;15.06;64.95;100578.63;4987772;28;20038;-67
2022/05/23 02:48:28;;;;;;;6.93;3.70;;;;;;;15.08;64.61;100581.88;4987603;28;20312;-63
2022/05/23 02:50:54;;;;;;;8.30;4.00;;;;;;;15.05;65.17;100574.38;4969545;28;20070;-63
2022/05/23 02:53:19;;;;;;;8.88;4.00;;;;;;;15.06;64.88;100569.00;4987440;28;20041;-62
2022/05/23 02:55:45;;;;;;;6.93;4.00;;;;;;;15.02;65.30;100574.69;4991824;28;20097;-63
2022/05/23 02:58:10;;;;;;;6.72;3.85;;;;;;;15.00;65.46;100553.16;4973508;28;20060;-62
2022/05/23 03:00:37;;;;;;;8.00;4.32;;;;;;;14.99;65.16;100565.41;4990701;28;20022;-63
2022/05/23 03:03:03;;;;;;;7.13;3.90;;;;;;;14.97;64.92;100553.50;4973553;28;20060;-63
2022/05/23 03:05:37;;;;;;;9.23;4.30;;;;;;;14.97;65.93;100546.47;4990984;28;20033;-63
2022/05/23 03:08:02;;;;;;;8.73;4.40;;;;;;;14.94;65.75;100545.97;4991190;28;20026;-64
2022/05/23 03:10:28;;;;;;;8.02;4.50;;;;;;;14.86;65.90;100521.47;4976807;28;20030;-64
2022/05/23 03:12:53;;;;;;;9.13;4.68;;;;;;;14.93;66.32;100524.25;4990619;28;20033;-62
2022/05/23 03:15:19;;;;;;;7.43;4.43;;;;;;;14.94;65.82;100509.41;4990893;28;20433;-63
2022/05/23 03:17:45;;;;;;;8.13;4.22;;;;;;;14.88;66.28;100509.06;4989457;28;20038;-63
2022/05/23 03:20:11;;;;;;;9.93;4.50;;;;;;;14.90;66.16;100500.25;4991010;28;20022;-63
2022/05/23 03:28:04;;;;;;;11.50;5.28;;;;;;;14.86;66.58;100477.09;4990700;28;20048;-62
2022/05/23 03:30:30;;;;;;;8.35;4.57;;;;;;;14.88;66.18;100475.13;4981680;28;20421;-63
2022/05/23 03:32:57;;;;;;;8.73;5.20;;;;;;;14.72;67.26;100464.66;4990800;28;20062;-63
2022/05/23 03:35:23;;;;;;;8.82;5.00;;;;;;;14.77;66.69;100462.38;4990315;28;20054;-62
2022/05/23 03:37:48;;;;;;;10.02;5.05;;;;;;;14.73;66.70;100455.84;4990670;28;20030;-62
2022/05/23 03:40:14;;;;;;;9.40;5.53;;;;;;;14.70;66.60;100464.00;4990229;28;20023;-63
2022/05/23 03:42:40;;;;;;;9.95;5.18;;;;;;;14.66;66.58;100448.81;4990446;28;20104;-63
2022/05/23 03:45:09;;;;;;;7.10;4.90;;;;;;;14.61;67.36;100454.50;4989319;28;20022;-66
2022/05/23 03:47:34;;;;;;;8.35;5.22;;;;;;;14.65;67.35;100447.19;4970689;28;20114;-64
2022/05/23 03:49:59;;;;;;;10.68;5.38;;;;;;;14.57;67.99;100461.06;4979951;28;20115;-63
2022/05/23 03:52:25;;;;;;;9.18;5.40;;;;;;;14.66;67.67;100449.63;4974327;28;20403;-67
2022/05/23 03:54:50;;;;;;;10.40;5.40;;;;;;;14.68;67.73;100436.41;4974044;28;20478;-63
2022/05/23 03:57:17;;;;;;;11.85;5.50;;;;;;;14.62;67.54;100437.88;4985361;28;20085;-63
2022/05/23 03:59:43;;;;;;;8.63;5.30;;;;;;;14.63;68.07;100434.31;4989905;28;20505;-62
2022/05/23 04:02:09;;;;;;;9.45;5.20;;;;;;;14.64;68.18;100435.94;4968462;28;20030;-66
2022/05/23 04:04:35;;;;;;;8.38;5.22;;;;;;;14.62;68.58;100427.44;4974150;28;20030;-63
2022/05/23 04:07:02;;;;;;;10.98;5.50;;;;;;;14.59;69.15;100422.53;4986265;28;20058;-64
2022/05/23 04:09:28;;;;;;;8.70;5.60;;;;;;;14.54;69.38;100424.81;4967963;28;20038;-64
2022/05/23 04:11:54;;;;;;;8.50;5.43;;;;;;;14.53;69.30;100417.97;4976759;28;20542;-62
2022/05/23 04:14:20;;;;;;;10.10;6.07;;;;;;;14.53;69.02;100426.63;4977950;28;20038;-65
2022/05/23 04:16:46;;;;;;;9.05;5.53;;;;;;;14.53;68.80;100417.97;4984104;28;20045;-62
2022/05/23 04:19:11;;;;;;;12.23;6.40;;;;;;;14.50;69.04;100413.06;4964455;28;20097;-63
2022/05/23 04:21:42;;;;;;;9.10;6.13;;;;;;;14.52;68.89;100416.34;4974479;28;20470;-62
2022/05/23 04:24:08;;;;;;;9.90;5.75;;;;;;;14.37;69.81;100402.25;4979190;28;20030;-62
2022/05/23 04:26:34;;;;;;;10.38;5.90;;;;;;;14.53;69.38;100415.38;4953784;28;20411;-63
2022/05/23 04:28:59;;;;;;;10.13;6.00;;;;;;;14.44;69.68;100408.44;4974048;28;20025;-62
2022/05/23 04:31:25;;;;;;;9.60;6.20;;;;;;;14.38;69.80;100403.88;4989235;28;20026;-63
2022/05/23 04:36:35;;;;;;;11.95;6.03;;;;;;;14.49;70.06;100401.81;4989083;28;20064;-62
2022/05/23 04:39:00;;;;;;;11.68;6.72;;;;;;;14.43;70.41;100396.38;4985731;28;20526;-62
2022/05/23 04:41:25;;;;;;;10.63;6.28;;;;;;;14.49;70.26;100396.59;4969650;28;20474;-62
2022/05/23 04:43:51;;;;;;;9.60;6.07;;;;;;;14.49;70.56;100398.38;4970253;28;20041;-62
2022/05/23 04:46:16;;;;;;;10.50;6.60;;;;;;;14.47;70.37;100392.53;4987973;28;20034;-63
2022/05/23 04:51:26;;;;;;;10.77;6.68;;;;;;;14.43;70.95;100388.56;4988934;28;20069;-62
2022/05/23 04:53:55;;;;;;;10.02;6.97;;;;;;;14.50;71.12;100400.00;4988693;28;20498;-62
2022/05/23 04:56:21;;;;;;;10.20;7.28;;;;;;;14.57;71.67;100395.81;4989324;28;20071;-63
2022/05/23 04:58:47;;;;;;;9.10;6.22;;;;;;;14.61;71.87;100384.84;4988927;28;20061;-64
2022/05/23 05:01:12;;;;;;;12.90;7.50;;;;;;;14.69;71.20;100383.25;4988985;28;20054;-64
2022/05/23 05:03:38;;;;;;;10.65;6.60;;;;;;;14.69;71.33;100381.47;4988583;28;20109;-62
2022/05/23 05:06:04;;;;;;;10.45;6.95;;;;;;;14.64;71.46;100375.91;4989074;28;20046;-62
2022/05/23 05:08:30;;;;;;;9.88;6.88;;;;;;;14.77;71.37;100364.97;4988277;28;20030;-62
2022/05/23 05:10:59;;;;;;;10.63;6.78;;;;;;;14.75;71.72;100359.91;4988551;28;20413;-63
2022/05/23 05:13:25;;;;;;;10.70;7.45;;;;;;;14.82;72.06;100363.50;4988993;28;20027;-62
2022/05/23 05:15:51;;;;;;;12.65;7.90;;;;;;;14.82;71.49;100360.88;4975675;28;20546;-65
2022/05/23 05:18:17;;;;;;;9.90;7.43;;;;;;;14.96;71.58;100361.19;4985361;28;20050;-62
2022/05/23 05:20:42;;;;;;;10.55;7.50;;;;;;;14.98;71.22;100351.41;4988368;28;20374;-65
2022/05/23 05:23:08;;;;;;;10.25;7.75;;;;;;;15.07;71.42;100359.06;4975526;28;20065;-63
2022/05/23 05:25:33;;;;;;;10.57;8.02;;;;;;;15.12;71.53;100345.50;4968713;28;20122;-62
2022/05/23 05:27:58;;;;;;;12.98;8.20;;;;;;;15.08;71.53;100341.59;4987252;28;20030;-66
2022/05/23 05:30:24;;;;;;;12.60;8.02;;;;;;;15.19;71.83;100340.41;4984111;28;20031;-62
2022/05/23 05:33:02;;;;;;;12.15;8.07;;;;;;;15.22;71.73;100335.69;4970646;28;20034;-62
2022/05/23 05:35:39;;;;;;;12.20;8.70;;;;;;;15.27;72.11;100333.41;4987834;28;20050;-63
2022/05/23 05:38:04;;;;;;;13.52;8.20;;;;;;;15.37;71.23;100339.25;4971939;28;20042;-62
2022/05/23 05:40:33;;;;;;;11.25;8.60;;;;;;;15.32;71.53;100336.31;4977449;28;20406;-63
2022/05/23 05:43:02;;;;;;;10.10;8.18;;;;;;;15.33;71.56;100311.00;4979118;28;20035;-63
2022/05/23 05:45:32;;;;;;;13.10;8.90;;;;;;;15.45;72.14;100329.75;4977275;28;20089;-63
2022/05/23 05:47:58;;;;;;;11.23;8.90;;;;;;;15.49;72.01;100323.22;4981958;28;20498;-63
2022/05/23 05:50:29;;;;;;;11.45;9.00;;;;;;;15.55;71.88;100330.38;4984038;28;20041;-63
2022/05/23 05:52:58;;;;;;;11.32;9.18;;;;;;;15.55;71.97;100309.47;4971023;28;20065;-63
2022/05/23 05:55:24;;;;;;;13.27;8.63;;;;;;;15.60;71.99;100323.66;4983221;28;20034;-63
2022/05/23 05:57:49;;;;;;;11.93;8.65;;;;;;;15.61;71.53;100309.59;4973169;28;20078;-63
2022/05/23 06:00:16;;;;;;;13.10;9.13;;;;;;;15.70;72.24;100312.19;4968295;28;20035;-63
2022/05/23 06:02:41;;;;;;;12.07;9.50;;;;;;;15.76;71.34;100314.94;4968572;28;20034;-63
2022/05/23 06:05:07;;;;;;;13.10;9.48;;;;;;;15.78;71.42;100305.13;4969437;28;20428;-62
2022/05/23 06:11:23;;;;;;;11.38;9.00;;;;;;;15.84;71.61;100303.63;4976834;28;20065;-62
2022/05/23 06:13:18;;;;;;;10.57;8.80;;;;;;;15.88;71.36;100289.19;4968573;28;20383;-62
2022/05/23 06:15:45;;;;;;;11.05;9.38;;;;;;;15.91;71.43;100291.50;4970759;28;20073;-63
2022/05/23 06:18:11;;;;;;;13.95;9.43;;;;;;;16.03;71.20;100291.91;4971078;28;20031;-63
2022/05/23 06:20:37;;;;;;;12.00;8.90;;;;;;;16.03;70.87;100281.44;4983552;28;20019;-63
2022/05/23 06:23:03;;;;;;;13.68;9.05;;;;;;;16.12;70.88;100281.22;4987625;28;20030;-63
2022/05/23 06:25:29;;;;;;;11.60;8.90;;;;;;;16.13;71.65;100282.03;4987079;28;20470;-63
2022/05/23 06:27:54;;;;;;;11.38;8.57;;;;;;;16.23;69.79;100277.38;4981478;28;20026;-63
2022/05/23 06:30:20;;;;;;;11.80;8.77;;;;;;;16.26;70.13;100270.97;4971432;28;20026;-63
2022/05/23 06:32:46;;;;;;;10.93;8.65;;;;;;;16.38;69.94;100277.41;4991636;28;20022;-63
2022/05/23 06:35:12;;;;;;;11.63;8.30;;;;;;;16.40;69.03;100278.88;4991628;28;20050;-64
2022/05/23 06:37:39;;;;;;;10.55;8.30;;;;;;;16.48;69.44;100279.78;4991825;28;20030;-63
2022/05/23 06:40:07;;;;;;;11.50;8.13;;;;;;;16.55;68.84;100265.00;4983131;28;20121;-63
2022/05/23 06:42:33;;;;;;;9.88;7.68;;;;;;;16.62;68.34;100265.91;4973274;28;20030;-63
2022/05/23 06:45:02;;;;;;;10.35;7.63;;;;;;;16.71;67.61;100264.88;4991803;28;20026;-64
2022/05/23 06:47:27;;;;;;;10.70;6.93;;;;;;;16.79;67.90;100271.84;4980747;28;20494;-63
2022/05/23 06:49:53;;;;;;;11.57;7.60;;;;;;;16.82;67.86;100267.06;4974977;28;20030;-64
2022/05/23 06:52:19;;;;;;;10.38;7.13;;;;;;;16.92;67.15;100262.38;4975791;28;20427;-66
2022/05/23 06:54:44;;;;;;;10.77;6.57;;;;;;;16.99;66.91;100252.81;4991355;28;20034;-63
2022/05/23 06:57:10;;;;;;;11.07;6.60;;;;;;;17.08;67.08;100253.50;4991682;28;20347;-64
2022/05/23 06:59:36;;;;;;;9.55;6.60;;;;;;;17.18;66.79;100245.38;4990798;28;20065;-63
2022/05/23 07:02:02;;;;;;;10.25;7.07;;;;;;;17.22;65.63;100246.66;4991335;28;20385;-67
2022/05/23 07:12:19;;;;;;;10.82;6.90;;;;;;;17.21;65.62;100239.78;4990390;28;20379;-63
2022/05/23 07:12:41;;;;;;;8.88;6.60;;;;;;;17.47;65.29;100234.84;4985619;28;20045;-63
2022/05/23 07:15:07;;;;;;;10.23;6.60;;;;;;;17.48;65.84;100225.97;4991118;28;20386;-67
2022/05/23 07:17:33;;;;;;;9.00;6.70;;;;;;;17.60;65.40;100233.38;4990879;28;20037;-64
2022/05/23 07:19:58;;;;;;;9.40;6.50;;;;;;;17.62;64.95;100223.50;4990423;28;20025;-67
2022/05/23 07:22:24;;;;;;;8.85;6.32;;;;;;;17.70;65.09;100228.63;4990312;28;20030;-63
2022/05/23 07:24:50;;;;;;;9.85;6.82;;;;;;;17.70;63.64;100218.16;4991100;28;20424;-64
2022/05/23 07:27:15;;;;;;;10.32;6.63;;;;;;;17.80;64.22;100220.50;4990812;28;20393;-65
2022/05/23 07:29:41;;;;;;;9.13;6.30;;;;;;;17.83;63.64;100222.72;4988375;28;20049;-63
2022/05/23 07:32:11;;;;;;;8.35;6.45;;;;;;;17.90;64.34;100227.06;4990713;28;20386;-64
2022/05/23 07:34:37;;;;;;;11.30;7.05;;;;;;;17.93;65.90;100229.28;4990635;28;20061;-64
2022/05/23 07:37:03;;;;;;;11.25;5.97;;;;;;;18.00;64.43;100219.66;4988542;28;20030;-64
2022/05/23 07:39:28;;;;;;;10.80;6.50;;;;;;;18.07;63.83;100221.56;4971577;28;20026;-63
2022/05/23 07:41:53;;;;;;;10.82;5.90;;;;;;;18.11;63.41;100220.16;4990676;28;20451;-63
2022/05/23 07:44:19;;;;;;;7.88;5.60;;;;;;;18.11;63.16;100212.28;4989952;28;20037;-64
2022/05/23 07:46:44;;;;;;;10.15;6.15;;;;;;;18.12;63.36;100211.28;4982772;28;20057;-64
2022/05/23 07:49:10;;;;;;;10.32;6.30;;;;;;;18.19;64.42;100209.56;4981469;28;20528;-63
2022/05/23 07:51:35;;;;;;;9.73;6.00;;;;;;;18.20;64.12;100204.09;4989441;28;20577;-63
2022/05/23 08:02:16;;;;;;;10.50;6.50;;;;;;;18.37;63.00;100199.38;4979839;28;20077;-65
2022/05/23 08:04:42;;;;;;;9.02;6.53;;;;;;;18.37;63.29;100188.06;4983404;28;20042;-66
2022/05/23 08:07:09;;;;;;;9.27;6.25;;;;;;;18.51;62.81;100193.22;4984282;28;20370;-63
2022/05/23 08:09:36;;;;;;;10.13;6.35;;;;;;;18.62;62.89;100201.56;4967895;28;20053;-63
2022/05/23 08:12:04;;;;;;;9.57;6.32;;;;;;;18.63;62.25;100192.69;4981406;28;20027;-64
2022/05/23 08:14:29;;;;;;;;;;;;;;;18.74;63.42;100200.03;4989950;28;20038;-63
2022/05/23 08:16:55;;;;;;;10.23;6.93;;;;;;;18.75;62.33;100196.41;4990113;28;19917;-63
2022/05/23 08:19:20;;;;;;;8.65;5.80;;;;;;;18.79;61.66;100192.41;4971812;28;20288;-64
2022/05/23 08:21:53;;;;;;;8.85;5.78;;;;;;;18.87;62.09;100187.00;4990291;28;20415;-63
2022/05/23 08:24:20;;;;;;;9.73;6.13;;;;;;;18.96;62.22;100183.19;4989417;28;20044;-63
2022/05/23 08:26:45;;;;;;;10.10;5.72;;;;;;;18.98;61.60;100181.19;4968216;28;20418;-65
2022/05/23 08:29:11;;;;;;;9.80;5.68;;;;;;;19.06;61.69;100188.91;4989139;28;20027;-65
2022/05/23 08:31:37;;;;;;;9.20;6.93;;;;;;;19.05;60.81;100182.03;4989706;28;20061;-63
2022/05/23 08:34:03;;;;;;;9.93;6.90;;;;;;;19.09;61.36;100180.59;4989662;28;20552;-63
2022/05/23 08:36:29;;;;;;;10.13;7.00;;;;;;;19.16;60.37;100187.72;4989307;28;20084;-63
2022/05/23 08:38:54;;;;;;;9.45;6.55;;;;;;;19.13;59.63;100164.44;4971074;28;20034;-65
2022/05/23 08:41:26;;;;;;;10.02;7.38;;;;;;;19.22;60.12;100165.91;4989312;28;20423;-63
2022/05/23 08:44:05;;;;;;;9.45;7.55;;;;;;;19.24;60.38;100169.13;4989199;28;20026;-63
2022/05/23 08:46:57;;;;;;;12.23;7.72;;;;;;;19.28;60.02;100165.13;4989224;28;20029;-63
2022/05/23 08:49:56;;;;;;;11.07;7.50;;;;;;;19.32;60.77;100167.13;4988575;28;20034;-63
2022/05/23 08:52:27;;;;;;;11.00;7.80;;;;;;;19.36;60.53;100157.03;4983441;28;20031;-63
2022/05/23 08:55:03;;;;;;;9.27;7.30;;;;;;;19.36;60.16;100162.28;4972674;28;20069;-68
2022/05/23 08:57:53;;;;;;;10.77;7.90;;;;;;;19.39;60.32;100155.84;4972402;28;20035;-67
2022/05/23 09:00:23;;;;;;;9.88;7.53;;;;;;;19.36;60.92;100141.25;4978689;28;20038;-65
2022/05/23 09:03:03;;;;;;;11.25;7.80;;;;;;;19.44;60.65;100158.66;4973167;28;20034;-64
2022/05/23 09:05:32;;;;;;;9.43;7.53;;;;;;;19.41;59.92;100152.00;4980538;28;20061;-69
2022/05/23 09:08:05;;;;;;;9.57;7.57;;;;;;;19.46;60.17;100146.16;4960771;28;20478;-67
2022/05/23 09:10:54;;;;;;;10.93;7.70;;;;;;;19.47;60.36;100139.88;4975987;28;20041;-65
2022/05/23 09:13:21;;;;;;;10.35;7.90;;;;;;;19.53;58.80;100139.88;4989091;28;20030;-65
2022/05/23 09:15:50;;;;;;;10.05;7.43;;;;;;;19.48;59.14;100134.41;4988060;28;20037;-66
2022/05/23 09:18:21;;;;;;;10.20;7.38;;;;;;;19.53;60.18;100139.06;4988477;28;20037;-64
2022/05/23 09:20:50;;;;;;;10.13;7.82;;;;;;;19.59;59.11;100133.84;4988356;28;20053;-64
2022/05/23 09:23:45;;;;;;;11.20;7.70;;;;;;;19.64;60.19;100122.72;4989161;28;20041;-64
2022/05/23 09:26:20;;;;;;;11.20;7.93;;;;;;;19.62;59.57;100125.56;4983288;28;20050;-64
2022/05/23 09:28:45;;;;;;;11.13;7.93;;;;;;;19.63;60.53;100121.91;4985804;28;20038;-66
2022/05/23 09:31:27;;;;;;;11.10;8.05;;;;;;;19.61;60.39;100097.63;4951713;28;20383;-64
2022/05/23 09:33:56;;;;;;;12.63;8.20;;;;;;;19.66;60.31;100102.28;4970060;28;20059;-66
2022/05/23 09:36:29;;;;;;;10.35;7.60;;;;;;;19.65;59.17;100089.31;4981303;28;20026;-63
2022/05/23 09:38:58;;;;;;;10.70;7.18;;;;;;;19.67;58.98;100087.28;4981398;28;20062;-64
2022/05/23 09:47:44;;;;;;;9.15;6.72;;;;;;;19.69;59.19;100072.94;4975780;28;20022;-67
2022/05/23 09:49:48;;;;;;;10.52;7.38;;;;;;;19.74;59.62;100059.19;4964829;28;20037;-66
2022/05/23 09:52:19;;;;;;;11.40;8.13;;;;;;;19.73;60.32;100060.19;4979255;28;20417;-68
2022/05/23 09:54:59;;;;;;;9.48;7.82;;;;;;;19.79;59.77;100062.00;4970420;28;20462;-65
2022/05/23 09:57:34;;;;;;;10.13;7.72;;;;;;;19.80;59.81;100053.09;4988049;28;20057;-65
2022/05/23 10:00:04;;;;;;;9.85;7.80;;;;;;;19.82;59.67;100046.59;4987496;28;20602;-63
2022/05/23 10:02:34;;;;;;;10.15;6.60;;;;;;;19.85;59.36;100037.50;4987110;28;20398;-64
2022/05/23 10:04:59;;;;;;;8.70;6.00;;;;;;;19.83;59.30;100026.38;4988084;28;20030;-64
2022/05/23 10:07:32;;;;;;;11.27;5.68;;;;;;;19.78;59.35;100021.72;4987872;28;20525;-66
2022/05/23 10:10:01;;;;;;;8.40;5.47;;;;;;;19.83;60.10;100015.84;4988035;28;20142;-64
2022/05/23 10:12:28;;;;;;;8.23;5.50;;;;;;;19.78;60.62;100005.91;4987611;28;20026;-64
2022/05/23 10:15:21;;;;;;;7.43;5.50;;;;;;;19.83;59.41;100000.03;4988165;28;20037;-66
2022/05/23 10:18:02;;;;;;;9.27;5.95;;;;;;;19.83;59.96;100010.56;4988204;28;20035;-64
2022/05/23 10:20:39;;;;;;;9.88;6.20;;;;;;;19.86;59.48;100000.44;4987543;28;20045;-65
2022/05/23 10:23:22;;;;;;;8.70;5.85;;;;;;;19.86;59.42;100004.91;4987843;28;20070;-63
2022/05/23 10:26:23;;;;;;;7.80;5.72;;;;;;;19.92;60.12;100009.34;4987776;28;20113;-65
2022/05/23 10:28:58;;;;;;;9.75;6.35;;;;;;;19.97;61.04;100004.28;4981390;28;20495;-64
2022/05/23 10:31:45;;;;;;;10.82;7.15;;;;;;;20.00;59.56;100001.22;4968843;28;20027;-64
2022/05/23 10:34:32;;;;;;;10.13;6.93;;;;;;;20.09;59.27;100002.63;4979886;28;20062;-63
2022/05/23 10:36:58;;;;;;;10.75;6.70;;;;;;;20.13;59.10;100006.47;4977780;28;20110;-66
2022/05/23 10:42:45;;;;;;;11.15;8.00;;;;;;;20.51;58.23;99986.47;4988410;28;20529;-64
2022/05/23 10:45:29;;;;;;;9.63;7.60;;;;;;;20.56;58.15;99979.56;4971003;28;20526;-67
2022/05/23 10:48:13;;;;;;;9.60;6.40;;;;;;;20.65;58.41;99978.31;4973999;28;20029;-64
2022/05/23 10:50:44;;;;;;;8.73;6.43;;;;;;;20.74;57.21;99992.03;4985362;28;20038;-64
2022/05/23 10:53:21;;;;;;;10.00;7.05;;;;;;;20.71;57.51;99983.75;4987685;28;20550;-64
2022/05/23 10:55:49;;;;;;;8.98;6.80;;;;;;;20.77;56.58;99975.00;4975388;28;20058;-64
2022/05/23 10:58:36;;;;;;;11.15;7.00;;;;;;;20.85;56.74;99966.81;4972039;28;20041;-64
2022/05/23 11:01:22;;;;;;;9.98;7.25;;;;;;;20.98;57.17;99972.00;4982995;28;20081;-64
2022/05/23 11:04:00;;;;;;;8.85;6.55;;;;;;;21.17;59.07;99973.69;4987876;28;20124;-64
2022/05/23 11:06:33;;;;;;;;;;;;;;;21.32;57.66;99967.28;4983618;28;20101;-64
2022/05/23 11:09:09;;;;;;;11.60;6.30;;;;;;;21.55;55.89;99956.94;4973932;28;19918;-66
2022/05/23 11:11:51;;;;;;;10.32;6.05;;;;;;;21.66;55.72;99947.50;4953408;28;20142;-64
2022/05/23 11:14:36;;;;;;;9.18;5.78;;;;;;;21.80;54.73;99942.91;4978329;28;20418;-65
2022/05/23 11:17:27;;;;;;;9.55;6.10;;;;;;;21.87;55.54;99933.06;4971287;28;20018;-64
2022/05/23 11:20:10;;;;;;;8.90;6.78;;;;;;;22.08;54.42;99929.97;4975700;28;20019;-64
2022/05/23 11:22:58;;;;;;;10.32;6.55;;;;;;;22.08;54.17;99929.97;4976058;28;20031;-64
2022/05/23 11:25:32;;;;;;;9.15;6.22;;;;;;;22.18;53.93;99924.97;4973224;28;20134;-65
2022/05/23 11:34:09;;;;;;;9.35;6.43;;;;;;;22.56;54.30;99894.78;4978425;28;20170;-64
2022/05/23 11:39:56;;;;;;;10.23;7.30;;;;;;;22.64;54.20;99875.94;4990455;28;20053;-65
2022/05/23 11:42:24;;;;;;;10.20;7.60;;;;;;;22.65;51.69;99867.00;4990083;28;20073;-64
2022/05/23 11:44:49;;;;;;;11.13;7.38;;;;;;;22.81;52.07;99860.22;4990540;28;20034;-68
2022/05/23 11:47:25;;;;;;;9.50;7.27;;;;;;;22.82;52.89;99850.44;4989692;28;20041;-64
2022/05/23 11:49:59;;;;;;;8.35;6.28;;;;;;;22.95;52.59;99853.72;4989960;28;20300;-68
2022/05/23 11:52:40;;;;;;;10.10;6.82;;;;;;;22.96;51.76;99833.38;4981041;28;20073;-64
2022/05/23 11:55:11;;;;;;;9.68;5.97;;;;;;;23.00;53.33;99827.41;4981116;28;20204;-64
2022/05/23 11:57:41;;;;;;;8.93;5.05;;;;;;;23.09;50.48;99825.19;4981895;28;20029;-64
2022/05/23 12:00:07;;;;;;;7.95;5.55;;;;;;;22.97;49.37;99816.47;4972188;28;20022;-64
2022/05/23 12:02:38;;;;;;;9.05;5.43;;;;;;;22.85;50.29;99808.50;4990247;28;20387;-64
2022/05/23 12:05:09;;;;;;;9.20;6.15;;;;;;;22.77;49.38;99806.22;4989975;28;20377;-64
2022/05/23 12:07:36;;;;;;;9.02;4.50;;;;;;;22.93;49.69;99815.31;4990242;28;20061;-64
2022/05/23 12:10:28;;;;;;;7.45;4.68;;;;;;;22.93;49.20;99815.31;4976868;28;20066;-64
2022/05/23 12:13:26;;;;;;;9.30;4.72;;;;;;;22.85;49.01;99802.41;4972467;28;20050;-64
2022/05/23 12:15:54;;;;;;;8.82;5.30;;;;;;;22.69;47.99;99796.78;4972530;28;20026;-67
2022/05/23 12:18:22;;;;;;;8.23;5.40;;;;;;;22.69;48.98;99798.59;4972392;28;20041;-64
2022/05/23 12:20:49;;;;;;;;;;;;;;;22.84;50.19;99787.59;4990047;28;20073;-64
2022/05/23 12:23:38;;;;;;;8.90;5.47;;;;;;;22.69;50.16;99788.84;4989551;28;19920;-64
2022/05/23 12:26:18;;;;;;;9.27;5.18;;;;;;;22.69;50.78;99788.84;4989850;28;20362;-65
2022/05/23 12:28:55;;;;;;;9.57;6.32;;;;;;;22.57;50.44;99780.09;4987513;28;20133;-65